sensor_id;sensor_type;location;lat;lon;timestamp;pressure;altitude;pressure_sealevel;temperature;humidity
72096;BME280;59968;51.084;16.748;2024-03-08T00:02:09;100967.02;;;4.90;61.51
72096;BME280;59968;51.084;16.748;2024-03-08T00:04:38;100967.39;;;4.86;61.61
72096;BME280;59968;51.084;16.748;2024-03-08T00:07:09;100969.84;;;4.79;61.70
72096;BME280;59968;51.084;16.748;2024-03-08T00:09:38;100966.92;;;4.74;61.74
72096;BME280;59968;51.084;16.748;2024-03-08T00:12:07;100966.43;;;4.72;61.84
72096;BME280;59968;51.084;16.748;2024-03-08T00:14:37;100965.48;;;4.69;61.87
72096;BME280;59968;51.084;16.748;2024-03-08T00:17:06;100934.79;;;4.48;61.85
72096;BME280;59968;51.084;16.748;2024-03-08T00:19:34;100963.21;;;4.63;61.84
72096;BME280;59968;51.084;16.748;2024-03-08T00:22:04;100963.86;;;4.62;61.91
72096;BME280;59968;51.084;16.748;2024-03-08T00:24:33;100967.13;;;4.60;61.90
72096;BME280;59968;51.084;16.748;2024-03-08T00:27:02;100966.46;;;4.55;61.96
72096;BME280;59968;51.084;16.748;2024-03-08T00:29:31;100969.34;;;4.54;62.01
72096;BME280;59968;51.084;16.748;2024-03-08T00:32:00;100964.48;;;4.49;61.96
72096;BME280;59968;51.084;16.748;2024-03-08T00:34:29;100963.89;;;4.46;61.89
72096;BME280;59968;51.084;16.748;2024-03-08T00:36:58;100967.06;;;4.41;61.93
72096;BME280;59968;51.084;16.748;2024-03-08T00:39:27;100963.38;;;4.36;61.89
72096;BME280;59968;51.084;16.748;2024-03-08T00:41:56;100960.08;;;4.31;62.01
72096;BME280;59968;51.084;16.748;2024-03-08T00:44:25;100960.95;;;4.27;61.99
72096;BME280;59968;51.084;16.748;2024-03-08T00:46:54;100962.14;;;4.23;62.09
72096;BME280;59968;51.084;16.748;2024-03-08T00:49:23;100960.95;;;4.19;62.01
72096;BME280;59968;51.084;16.748;2024-03-08T00:51:52;100956.23;;;4.12;62.07
72096;BME280;59968;51.084;16.748;2024-03-08T00:54:20;100958.88;;;4.06;62.29
72096;BME280;59968;51.084;16.748;2024-03-08T00:56:49;100954.31;;;3.99;62.38
72096;BME280;59968;51.084;16.748;2024-03-08T00:59:18;100948.13;;;3.93;62.43
72096;BME280;59968;51.084;16.748;2024-03-08T01:01:46;100943.56;;;3.88;62.49
72096;BME280;59968;51.084;16.748;2024-03-08T01:04:15;100947.92;;;3.85;62.64
72096;BME280;59968;51.084;16.748;2024-03-08T01:06:44;100947.81;;;3.81;62.66
72096;BME280;59968;51.084;16.748;2024-03-08T01:09:16;100944.86;;;3.78;62.74
72096;BME280;59968;51.084;16.748;2024-03-08T01:11:46;100939.76;;;3.73;62.93
72096;BME280;59968;51.084;16.748;2024-03-08T01:14:15;100922.16;;;3.59;62.94
72096;BME280;59968;51.084;16.748;2024-03-08T01:16:43;100936.50;;;3.61;62.95
72096;BME280;59968;51.084;16.748;2024-03-08T01:19:12;100933.15;;;3.55;63.03
72096;BME280;59968;51.084;16.748;2024-03-08T01:21:42;100938.91;;;3.45;63.24
72096;BME280;59968;51.084;16.748;2024-03-08T01:24:11;100934.14;;;3.37;63.54
72096;BME280;59968;51.084;16.748;2024-03-08T01:26:39;100934.79;;;3.37;63.42
72096;BME280;59968;51.084;16.748;2024-03-08T01:29:08;100932.29;;;3.30;63.58
72096;BME280;59968;51.084;16.748;2024-03-08T01:31:36;100930.56;;;3.26;63.77
72096;BME280;59968;51.084;16.748;2024-03-08T01:34:05;100930.20;;;3.24;63.65
72096;BME280;59968;51.084;16.748;2024-03-08T01:36:33;100923.00;;;3.18;63.64
72096;BME280;59968;51.084;16.748;2024-03-08T01:39:02;100921.86;;;3.12;63.94
72096;BME280;59968;51.084;16.748;2024-03-08T01:41:37;100918.36;;;3.04;64.00
72096;BME280;59968;51.084;16.748;2024-03-08T01:44:06;100916.79;;;2.99;64.12
72096;BME280;59968;51.084;16.748;2024-03-08T01:46:35;100901.06;;;2.89;64.29
72096;BME280;59968;51.084;16.748;2024-03-08T01:49:05;100912.85;;;2.95;64.35
72096;BME280;59968;51.084;16.748;2024-03-08T01:51:33;100912.67;;;2.91;64.57
72096;BME280;59968;51.084;16.748;2024-03-08T01:54:03;100912.48;;;2.87;64.67
72096;BME280;59968;51.084;16.748;2024-03-08T01:56:33;100911.58;;;2.84;64.74
72096;BME280;59968;51.084;16.748;2024-03-08T01:59:02;100909.08;;;2.78;64.82
72096;BME280;59968;51.084;16.748;2024-03-08T02:01:34;100907.69;;;2.81;64.91
72096;BME280;59968;51.084;16.748;2024-03-08T02:04:03;100902.52;;;2.79;64.83
72096;BME280;59968;51.084;16.748;2024-03-08T02:06:34;100905.39;;;2.86;64.88
72096;BME280;59968;51.084;16.748;2024-03-08T02:09:03;100892.28;;;2.75;64.99
72096;BME280;59968;51.084;16.748;2024-03-08T02:11:36;100897.29;;;2.74;65.03
72096;BME280;59968;51.084;16.748;2024-03-08T02:14:05;100893.85;;;2.73;65.22
72096;BME280;59968;51.084;16.748;2024-03-08T02:16:35;100895.10;;;2.72;65.35
72096;BME280;59968;51.084;16.748;2024-03-08T02:19:03;100896.15;;;2.70;65.56
72096;BME280;59968;51.084;16.748;2024-03-08T02:21:33;100896.52;;;2.67;65.58
72096;BME280;59968;51.084;16.748;2024-03-08T02:24:04;100899.42;;;2.63;65.49
72096;BME280;59968;51.084;16.748;2024-03-08T02:26:32;100899.31;;;2.60;65.56
72096;BME280;59968;51.084;16.748;2024-03-08T02:29:02;100894.10;;;2.59;65.65
72096;BME280;59968;51.084;16.748;2024-03-08T02:31:31;100892.58;;;2.56;65.74
72096;BME280;59968;51.084;16.748;2024-03-08T02:34:00;100895.34;;;2.54;65.91
72096;BME280;59968;51.084;16.748;2024-03-08T02:36:28;100893.59;;;2.51;66.02
72096;BME280;59968;51.084;16.748;2024-03-08T02:38:57;100895.86;;;2.56;65.95
72096;BME280;59968;51.084;16.748;2024-03-08T02:41:26;100898.11;;;2.58;65.88
72096;BME280;59968;51.084;16.748;2024-03-08T02:43:55;100898.83;;;2.55;66.00
72096;BME280;59968;51.084;16.748;2024-03-08T02:46:24;100898.66;;;2.49;66.06
72096;BME280;59968;51.084;16.748;2024-03-08T02:48:53;100892.63;;;2.46;66.10
72096;BME280;59968;51.084;16.748;2024-03-08T02:51:21;100893.30;;;2.48;66.02
72096;BME280;59968;51.084;16.748;2024-03-08T02:53:50;100891.04;;;2.40;66.24
72096;BME280;59968;51.084;16.748;2024-03-08T02:56:20;100886.23;;;2.38;66.33
72096;BME280;59968;51.084;16.748;2024-03-08T02:58:50;100888.23;;;2.37;66.43
72096;BME280;59968;51.084;16.748;2024-03-08T03:01:19;100887.48;;;2.33;66.35
72096;BME280;59968;51.084;16.748;2024-03-08T03:03:48;100884.66;;;2.34;66.23
72096;BME280;59968;51.084;16.748;2024-03-08T03:06:17;100883.40;;;2.31;66.20
72096;BME280;59968;51.084;16.748;2024-03-08T03:08:53;100882.59;;;2.28;66.21
72096;BME280;59968;51.084;16.748;2024-03-08T03:11:25;100879.46;;;2.29;66.20
72096;BME280;59968;51.084;16.748;2024-03-08T03:14:00;100875.29;;;2.28;66.03
72096;BME280;59968;51.084;16.748;2024-03-08T03:16:32;100869.45;;;2.26;66.22
72096;BME280;59968;51.084;16.748;2024-03-08T03:19:00;100872.33;;;2.25;66.37
72096;BME280;59968;51.084;16.748;2024-03-08T03:21:36;100869.21;;;2.19;66.37
72096;BME280;59968;51.084;16.748;2024-03-08T03:24:09;100874.80;;;2.13;66.60
72096;BME280;59968;51.084;16.748;2024-03-08T03:26:39;100874.81;;;2.06;66.59
72096;BME280;59968;51.084;16.748;2024-03-08T03:29:09;100875.71;;;2.01;66.73
72096;BME280;59968;51.084;16.748;2024-03-08T03:31:42;100870.92;;;1.97;66.75
72096;BME280;59968;51.084;16.748;2024-03-08T03:34:11;100871.50;;;1.92;66.84
72096;BME280;59968;51.084;16.748;2024-03-08T03:36:42;100860.16;;;1.78;67.03
72096;BME280;59968;51.084;16.748;2024-03-08T03:39:17;100874.27;;;1.85;67.22
72096;BME280;59968;51.084;16.748;2024-03-08T03:41:50;100875.79;;;1.87;67.12
72096;BME280;59968;51.084;16.748;2024-03-08T03:44:27;100875.42;;;1.88;67.12
72096;BME280;59968;51.084;16.748;2024-03-08T03:46:56;100875.85;;;1.93;67.11
72096;BME280;59968;51.084;16.748;2024-03-08T03:49:27;100879.04;;;2.00;66.85
72096;BME280;59968;51.084;16.748;2024-03-08T03:52:00;100876.85;;;2.02;67.01
72096;BME280;59968;51.084;16.748;2024-03-08T03:54:32;100878.77;;;2.01;67.04
72096;BME280;59968;51.084;16.748;2024-03-08T03:57:08;100879.13;;;2.01;67.18
72096;BME280;59968;51.084;16.748;2024-03-08T03:59:36;100877.55;;;2.00;67.02
72096;BME280;59968;51.084;16.748;2024-03-08T04:02:08;100877.63;;;1.99;67.18
72096;BME280;59968;51.084;16.748;2024-03-08T04:04:46;100881.27;;;2.00;67.11
72096;BME280;59968;51.084;16.748;2024-03-08T04:07:24;100876.00;;;2.00;67.16
72096;BME280;59968;51.084;16.748;2024-03-08T04:09:58;100874.61;;;1.98;67.28
72096;BME280;59968;51.084;16.748;2024-03-08T04:12:44;100871.84;;;1.96;67.09
72096;BME280;59968;51.084;16.748;2024-03-08T04:15:17;100870.25;;;1.92;66.95
72096;BME280;59968;51.084;16.748;2024-03-08T04:17:49;100870.41;;;1.90;66.96
72096;BME280;59968;51.084;16.748;2024-03-08T04:20:18;100872.91;;;1.87;67.21
72096;BME280;59968;51.084;16.748;2024-03-08T04:22:50;100868.45;;;1.83;67.32
72096;BME280;59968;51.084;16.748;2024-03-08T04:25:18;100870.26;;;1.84;67.20
72096;BME280;59968;51.084;16.748;2024-03-08T04:27:50;100858.33;;;1.75;67.22
72096;BME280;59968;51.084;16.748;2024-03-08T04:30:26;100877.27;;;1.84;67.12
72096;BME280;59968;51.084;16.748;2024-03-08T04:32:56;100875.40;;;1.83;66.94
72096;BME280;59968;51.084;16.748;2024-03-08T04:35:29;100871.20;;;1.83;67.04
72096;BME280;59968;51.084;16.748;2024-03-08T04:38:05;100869.52;;;1.81;67.05
72096;BME280;59968;51.084;16.748;2024-03-08T04:40:44;100871.15;;;1.79;67.33
72096;BME280;59968;51.084;16.748;2024-03-08T04:43:16;100868.11;;;1.76;67.43
72096;BME280;59968;51.084;16.748;2024-03-08T04:45:51;100869.35;;;1.76;67.21
72096;BME280;59968;51.084;16.748;2024-03-08T04:48:20;100871.83;;;1.77;67.31
72096;BME280;59968;51.084;16.748;2024-03-08T04:50:49;100869.54;;;1.76;67.30
72096;BME280;59968;51.084;16.748;2024-03-08T04:53:21;100867.90;;;1.73;67.34
72096;BME280;59968;51.084;16.748;2024-03-08T04:55:49;100868.42;;;1.70;67.10
72096;BME280;59968;51.084;16.748;2024-03-08T04:58:18;100871.65;;;1.68;67.21
72096;BME280;59968;51.084;16.748;2024-03-08T05:00:50;100873.63;;;1.65;67.28
72096;BME280;59968;51.084;16.748;2024-03-08T05:03:25;100870.50;;;1.63;67.36
72096;BME280;59968;51.084;16.748;2024-03-08T05:05:54;100870.98;;;1.62;67.30
72096;BME280;59968;51.084;16.748;2024-03-08T05:08:28;100871.59;;;1.61;67.38
72096;BME280;59968;51.084;16.748;2024-03-08T05:10:57;100870.94;;;1.62;67.22
72096;BME280;59968;51.084;16.748;2024-03-08T05:13:32;100872.48;;;1.64;67.33
72096;BME280;59968;51.084;16.748;2024-03-08T05:16:07;100874.75;;;1.66;67.34
72096;BME280;59968;51.084;16.748;2024-03-08T05:18:39;100871.70;;;1.65;67.34
72096;BME280;59968;51.084;16.748;2024-03-08T05:21:17;100872.73;;;1.66;67.27
72096;BME280;59968;51.084;16.748;2024-03-08T05:24:12;100871.08;;;1.65;67.28
72096;BME280;59968;51.084;16.748;2024-03-08T05:26:45;100869.71;;;1.63;67.32
72096;BME280;59968;51.084;16.748;2024-03-08T05:29:20;100863.20;;;1.61;67.26
72096;BME280;59968;51.084;16.748;2024-03-08T05:31:52;100865.41;;;1.61;67.26
72096;BME280;59968;51.084;16.748;2024-03-08T05:34:30;100864.20;;;1.61;67.29
72096;BME280;59968;51.084;16.748;2024-03-08T05:37:02;100867.69;;;1.62;67.37
72096;BME280;59968;51.084;16.748;2024-03-08T05:39:34;100867.21;;;1.64;67.29
72096;BME280;59968;51.084;16.748;2024-03-08T05:42:09;100865.66;;;1.64;67.34
72096;BME280;59968;51.084;16.748;2024-03-08T05:44:46;100863.48;;;1.64;67.42
72096;BME280;59968;51.084;16.748;2024-03-08T05:47:18;100863.85;;;1.63;67.31
72096;BME280;59968;51.084;16.748;2024-03-08T05:49:47;100865.55;;;1.66;67.24
72096;BME280;59968;51.084;16.748;2024-03-08T05:52:16;100873.76;;;1.67;67.42
72096;BME280;59968;51.084;16.748;2024-03-08T05:54:48;100869.95;;;1.70;67.34
72096;BME280;59968;51.084;16.748;2024-03-08T05:57:20;100869.08;;;1.75;67.55
72096;BME280;59968;51.084;16.748;2024-03-08T05:59:55;100865.60;;;1.78;67.42
72096;BME280;59968;51.084;16.748;2024-03-08T06:02:27;100866.20;;;1.81;67.37
72096;BME280;59968;51.084;16.748;2024-03-08T06:04:56;100868.05;;;1.86;67.46
72096;BME280;59968;51.084;16.748;2024-03-08T06:07:27;100867.20;;;1.90;67.61
72096;BME280;59968;51.084;16.748;2024-03-08T06:09:57;100868.58;;;1.94;67.58
72096;BME280;59968;51.084;16.748;2024-03-08T06:12:29;100871.08;;;2.00;67.51
72096;BME280;59968;51.084;16.748;2024-03-08T06:15:05;100867.00;;;2.04;67.68
72096;BME280;59968;51.084;16.748;2024-03-08T06:17:37;100864.64;;;2.08;67.78
72096;BME280;59968;51.084;16.748;2024-03-08T06:20:13;100866.45;;;2.13;67.83
72096;BME280;59968;51.084;16.748;2024-03-08T06:22:56;100873.05;;;2.22;67.82
72096;BME280;59968;51.084;16.748;2024-03-08T06:25:25;100875.23;;;2.28;67.82
72096;BME280;59968;51.084;16.748;2024-03-08T06:27:54;100874.98;;;2.36;67.82
72096;BME280;59968;51.084;16.748;2024-03-08T06:30:31;100871.11;;;2.44;67.80
72096;BME280;59968;51.084;16.748;2024-03-08T06:32:59;100866.55;;;2.51;67.72
72096;BME280;59968;51.084;16.748;2024-03-08T06:35:28;100864.77;;;2.57;67.72
72096;BME280;59968;51.084;16.748;2024-03-08T06:38:00;100869.07;;;2.65;67.73
72096;BME280;59968;51.084;16.748;2024-03-08T06:40:29;100868.27;;;2.74;67.65
72096;BME280;59968;51.084;16.748;2024-03-08T06:42:59;100869.26;;;2.83;67.32
72096;BME280;59968;51.084;16.748;2024-03-08T06:45:37;100866.81;;;2.90;67.27
72096;BME280;59968;51.084;16.748;2024-03-08T06:48:08;100871.36;;;2.94;67.19
72096;BME280;59968;51.084;16.748;2024-03-08T06:50:38;100875.14;;;3.00;67.16
72096;BME280;59968;51.084;16.748;2024-03-08T06:53:11;100873.55;;;3.05;67.09
72096;BME280;59968;51.084;16.748;2024-03-08T06:55:40;100876.10;;;3.11;67.18
72096;BME280;59968;51.084;16.748;2024-03-08T06:58:11;100870.08;;;3.18;67.05
72096;BME280;59968;51.084;16.748;2024-03-08T07:00:46;100870.85;;;3.25;66.97
72096;BME280;59968;51.084;16.748;2024-03-08T07:03:15;100869.40;;;3.32;66.89
72096;BME280;59968;51.084;16.748;2024-03-08T07:05:46;100867.52;;;3.40;66.73
72096;BME280;59968;51.084;16.748;2024-03-08T07:08:18;100865.09;;;3.47;66.66
72096;BME280;59968;51.084;16.748;2024-03-08T07:10:47;100868.92;;;3.54;66.67
72096;BME280;59968;51.084;16.748;2024-03-08T07:13:17;100872.50;;;3.62;66.50
72096;BME280;59968;51.084;16.748;2024-03-08T07:15:46;100873.59;;;3.65;66.30
72096;BME280;59968;51.084;16.748;2024-03-08T07:18:19;100871.00;;;3.71;66.34
72096;BME280;59968;51.084;16.748;2024-03-08T07:20:51;100870.62;;;3.78;66.10
72096;BME280;59968;51.084;16.748;2024-03-08T07:23:20;100872.08;;;3.82;65.99
72096;BME280;59968;51.084;16.748;2024-03-08T07:26:08;100871.09;;;3.88;65.77
72096;BME280;59968;51.084;16.748;2024-03-08T07:28:43;100870.38;;;3.92;65.66
72096;BME280;59968;51.084;16.748;2024-03-08T07:31:12;100869.19;;;3.96;65.66
72096;BME280;59968;51.084;16.748;2024-03-08T07:33:56;100866.30;;;4.02;65.64
72096;BME280;59968;51.084;16.748;2024-03-08T07:36:28;100866.16;;;4.11;65.74
72096;BME280;59968;51.084;16.748;2024-03-08T07:38:59;100867.46;;;4.19;65.62
72096;BME280;59968;51.084;16.748;2024-03-08T07:41:29;100868.84;;;4.27;65.51
72096;BME280;59968;51.084;16.748;2024-03-08T07:44:02;100867.15;;;4.32;65.11
72096;BME280;59968;51.084;16.748;2024-03-08T07:46:33;100864.14;;;4.33;64.99
72096;BME280;59968;51.084;16.748;2024-03-08T07:49:06;100864.20;;;4.37;64.98
72096;BME280;59968;51.084;16.748;2024-03-08T07:51:38;100862.61;;;4.41;65.15
72096;BME280;59968;51.084;16.748;2024-03-08T07:54:07;100852.34;;;4.41;65.17
72096;BME280;59968;51.084;16.748;2024-03-08T07:56:38;100861.80;;;4.56;65.09
72096;BME280;59968;51.084;16.748;2024-03-08T07:59:10;100859.55;;;4.62;64.84
72096;BME280;59968;51.084;16.748;2024-03-08T08:01:43;100854.90;;;4.72;64.95
72096;BME280;59968;51.084;16.748;2024-03-08T08:04:19;100856.86;;;4.82;64.79
72096;BME280;59968;51.084;16.748;2024-03-08T08:06:57;100855.75;;;4.90;64.76
72096;BME280;59968;51.084;16.748;2024-03-08T08:09:26;100854.19;;;5.00;64.65
72096;BME280;59968;51.084;16.748;2024-03-08T08:12:06;100849.44;;;5.10;64.46
72096;BME280;59968;51.084;16.748;2024-03-08T08:14:38;100850.79;;;5.22;64.44
72096;BME280;59968;51.084;16.748;2024-03-08T08:17:08;100853.65;;;5.32;64.26
72096;BME280;59968;51.084;16.748;2024-03-08T08:19:37;100852.96;;;5.39;64.15
72096;BME280;59968;51.084;16.748;2024-03-08T08:22:07;100851.57;;;5.48;63.98
72096;BME280;59968;51.084;16.748;2024-03-08T08:24:37;100854.45;;;5.58;63.82
72096;BME280;59968;51.084;16.748;2024-03-08T08:27:07;100852.57;;;5.65;63.63
72096;BME280;59968;51.084;16.748;2024-03-08T08:29:37;100854.77;;;5.72;63.40
72096;BME280;59968;51.084;16.748;2024-03-08T08:32:06;100853.39;;;5.79;63.32
72096;BME280;59968;51.084;16.748;2024-03-08T08:34:35;100850.22;;;5.86;63.15
72096;BME280;59968;51.084;16.748;2024-03-08T08:37:05;100854.23;;;5.93;63.21
72096;BME280;59968;51.084;16.748;2024-03-08T08:39:39;100853.75;;;6.01;63.24
72096;BME280;59968;51.084;16.748;2024-03-08T08:42:08;100851.50;;;6.07;63.23
72096;BME280;59968;51.084;16.748;2024-03-08T08:44:42;100855.05;;;6.16;62.97
72096;BME280;59968;51.084;16.748;2024-03-08T08:47:11;100848.91;;;6.24;62.92
72096;BME280;59968;51.084;16.748;2024-03-08T08:49:46;100848.41;;;6.35;63.12
72096;BME280;59968;51.084;16.748;2024-03-08T08:52:18;100844.33;;;6.48;62.81
72096;BME280;59968;51.084;16.748;2024-03-08T08:54:50;100832.86;;;6.50;62.29
72096;BME280;59968;51.084;16.748;2024-03-08T08:57:19;100843.33;;;6.62;62.00
72096;BME280;59968;51.084;16.748;2024-03-08T08:59:49;100840.16;;;6.66;61.75
72096;BME280;59968;51.084;16.748;2024-03-08T09:02:18;100830.66;;;6.74;61.75
72096;BME280;59968;51.084;16.748;2024-03-08T09:04:52;100829.59;;;6.83;61.63
72096;BME280;59968;51.084;16.748;2024-03-08T09:07:21;100826.92;;;6.89;61.50
72096;BME280;59968;51.084;16.748;2024-03-08T09:09:50;100825.18;;;6.95;61.46
72096;BME280;59968;51.084;16.748;2024-03-08T09:12:19;100811.36;;;6.96;61.32
72096;BME280;59968;51.084;16.748;2024-03-08T09:14:48;100824.77;;;7.13;61.22
72096;BME280;59968;51.084;16.748;2024-03-08T09:17:17;100807.83;;;7.09;60.97
72096;BME280;59968;51.084;16.748;2024-03-08T09:19:49;100811.80;;;7.11;60.87
72096;BME280;59968;51.084;16.748;2024-03-08T09:22:19;100821.73;;;7.19;60.50
72096;BME280;59968;51.084;16.748;2024-03-08T09:24:48;100819.61;;;7.24;60.58
72096;BME280;59968;51.084;16.748;2024-03-08T09:27:17;100821.02;;;7.30;60.38
72096;BME280;59968;51.084;16.748;2024-03-08T09:29:46;100821.23;;;7.36;60.26
72096;BME280;59968;51.084;16.748;2024-03-08T09:32:15;100817.02;;;7.40;60.08
72096;BME280;59968;51.084;16.748;2024-03-08T09:34:45;100819.48;;;7.45;60.34
72096;BME280;59968;51.084;16.748;2024-03-08T09:37:17;100813.27;;;7.51;59.78
72096;BME280;59968;51.084;16.748;2024-03-08T09:39:45;100816.92;;;7.53;59.49
72096;BME280;59968;51.084;16.748;2024-03-08T09:42:15;100809.84;;;7.57;59.43
72096;BME280;59968;51.084;16.748;2024-03-08T09:44:47;100804.82;;;7.62;59.16
72096;BME280;59968;51.084;16.748;2024-03-08T09:47:18;100803.80;;;7.66;58.90
72096;BME280;59968;51.084;16.748;2024-03-08T09:49:46;100801.88;;;7.70;58.81
72096;BME280;59968;51.084;16.748;2024-03-08T09:52:15;100798.15;;;7.68;58.77
72096;BME280;59968;51.084;16.748;2024-03-08T09:54:48;100797.59;;;7.72;58.81
72096;BME280;59968;51.084;16.748;2024-03-08T09:57:18;100798.84;;;7.76;58.65
72096;BME280;59968;51.084;16.748;2024-03-08T09:59:49;100798.26;;;7.85;58.85
72096;BME280;59968;51.084;16.748;2024-03-08T10:02:19;100795.53;;;7.95;58.39
72096;BME280;59968;51.084;16.748;2024-03-08T10:04:51;100789.27;;;7.98;58.21
72096;BME280;59968;51.084;16.748;2024-03-08T10:07:23;100787.13;;;7.99;58.58
72096;BME280;59968;51.084;16.748;2024-03-08T10:09:52;100791.38;;;8.03;58.21
72096;BME280;59968;51.084;16.748;2024-03-08T10:12:22;100784.98;;;8.08;57.43
72096;BME280;59968;51.084;16.748;2024-03-08T10:14:50;100783.73;;;8.15;57.32
72096;BME280;59968;51.084;16.748;2024-03-08T10:17:20;100782.48;;;8.20;57.36
72096;BME280;59968;51.084;16.748;2024-03-08T10:19:50;100777.55;;;8.24;56.78
72096;BME280;59968;51.084;16.748;2024-03-08T10:22:22;100779.48;;;8.29;56.51
72096;BME280;59968;51.084;16.748;2024-03-08T10:24:52;100780.07;;;8.33;56.63
72096;BME280;59968;51.084;16.748;2024-03-08T10:27:20;100779.18;;;8.41;56.66
72096;BME280;59968;51.084;16.748;2024-03-08T10:29:49;100778.30;;;8.48;56.73
72096;BME280;59968;51.084;16.748;2024-03-08T10:32:20;100781.37;;;8.48;55.91
72096;BME280;59968;51.084;16.748;2024-03-08T10:34:49;100784.48;;;8.43;56.01
72096;BME280;59968;51.084;16.748;2024-03-08T10:37:21;100774.92;;;8.42;56.03
72096;BME280;59968;51.084;16.748;2024-03-08T10:40:02;100780.51;;;8.42;56.17
72096;BME280;59968;51.084;16.748;2024-03-08T10:42:44;100775.01;;;8.37;56.16
72096;BME280;59968;51.084;16.748;2024-03-08T10:45:37;100783.38;;;8.44;56.43
72096;BME280;59968;51.084;16.748;2024-03-08T10:48:29;100782.27;;;8.46;55.90
72096;BME280;59968;51.084;16.748;2024-03-08T10:51:07;100778.07;;;8.54;56.20
72096;BME280;59968;51.084;16.748;2024-03-08T10:53:37;100777.56;;;8.60;56.32
72096;BME280;59968;51.084;16.748;2024-03-08T10:56:10;100774.86;;;8.57;55.98
72096;BME280;59968;51.084;16.748;2024-03-08T10:58:39;100773.12;;;8.53;56.16
72096;BME280;59968;51.084;16.748;2024-03-08T11:01:09;100771.29;;;8.54;55.68
72096;BME280;59968;51.084;16.748;2024-03-08T11:06:29;100763.23;;;8.69;55.63
72096;BME280;59968;51.084;16.748;2024-03-08T11:08:58;100763.61;;;8.77;55.53
72096;BME280;59968;51.084;16.748;2024-03-08T11:11:29;100751.85;;;8.83;55.01
72096;BME280;59968;51.084;16.748;2024-03-08T11:14:03;100755.16;;;8.89;54.97
72096;BME280;59968;51.084;16.748;2024-03-08T11:21:43;100742.52;;;9.04;54.09
72096;BME280;59968;51.084;16.748;2024-03-08T11:24:13;100740.08;;;9.01;53.80
72096;BME280;59968;51.084;16.748;2024-03-08T11:26:47;100740.22;;;9.00;53.55
72096;BME280;59968;51.084;16.748;2024-03-08T11:32:16;100724.85;;;9.07;53.63
72096;BME280;59968;51.084;16.748;2024-03-08T11:34:48;100726.86;;;9.15;53.75
72096;BME280;59968;51.084;16.748;2024-03-08T11:37:21;100721.85;;;9.21;53.52
72096;BME280;59968;51.084;16.748;2024-03-08T11:39:52;100716.30;;;9.24;52.76
72096;BME280;59968;51.084;16.748;2024-03-08T11:42:28;100709.95;;;9.30;52.66
72096;BME280;59968;51.084;16.748;2024-03-08T11:44:57;100708.55;;;9.33;52.38
72096;BME280;59968;51.084;16.748;2024-03-08T11:47:26;100709.09;;;9.39;52.42
72096;BME280;59968;51.084;16.748;2024-03-08T11:49:56;100707.84;;;9.44;51.40
72096;BME280;59968;51.084;16.748;2024-03-08T11:52:25;100709.27;;;9.46;51.07
72096;BME280;59968;51.084;16.748;2024-03-08T11:54:55;100706.17;;;9.49;51.21
72096;BME280;59968;51.084;16.748;2024-03-08T11:57:26;100700.25;;;9.50;51.32
72096;BME280;59968;51.084;16.748;2024-03-08T11:59:58;100699.81;;;9.49;51.15
72096;BME280;59968;51.084;16.748;2024-03-08T12:02:35;100690.81;;;9.52;51.22
72096;BME280;59968;51.084;16.748;2024-03-08T12:05:07;100685.58;;;9.57;50.84
72096;BME280;59968;51.084;16.748;2024-03-08T12:07:41;100680.86;;;9.59;50.58
72096;BME280;59968;51.084;16.748;2024-03-08T12:10:31;100680.51;;;9.62;50.04
72096;BME280;59968;51.084;16.748;2024-03-08T12:13:07;100674.73;;;9.66;49.27
72096;BME280;59968;51.084;16.748;2024-03-08T12:15:42;100673.33;;;9.71;50.03
72096;BME280;59968;51.084;16.748;2024-03-08T12:18:17;100670.88;;;9.77;50.29
72096;BME280;59968;51.084;16.748;2024-03-08T12:20:49;100664.67;;;9.85;50.48
72096;BME280;59968;51.084;16.748;2024-03-08T12:23:21;100663.56;;;9.93;50.18
72096;BME280;59968;51.084;16.748;2024-03-08T12:25:51;100659.36;;;9.98;49.86
72096;BME280;59968;51.084;16.748;2024-03-08T12:28:23;100652.21;;;9.99;49.73
72096;BME280;59968;51.084;16.748;2024-03-08T12:30:52;100649.98;;;10.01;49.76
72096;BME280;59968;51.084;16.748;2024-03-08T12:33:30;100648.21;;;10.03;49.86
72096;BME280;59968;51.084;16.748;2024-03-08T12:36:05;100644.34;;;10.03;49.66
72096;BME280;59968;51.084;16.748;2024-03-08T12:38:38;100645.20;;;10.05;49.19
72096;BME280;59968;51.084;16.748;2024-03-08T12:41:08;100643.98;;;10.02;49.11
72096;BME280;59968;51.084;16.748;2024-03-08T12:43:37;100636.39;;;9.99;49.18
72096;BME280;59968;51.084;16.748;2024-03-08T12:46:06;100638.23;;;10.03;49.03
72096;BME280;59968;51.084;16.748;2024-03-08T12:48:37;100632.63;;;10.02;48.89
72096;BME280;59968;51.084;16.748;2024-03-08T12:51:09;100634.39;;;10.01;48.89
72096;BME280;59968;51.084;16.748;2024-03-08T12:53:39;100629.25;;;10.02;49.37
72096;BME280;59968;51.084;16.748;2024-03-08T12:56:09;100626.36;;;10.16;49.17
72096;BME280;59968;51.084;16.748;2024-03-08T12:58:40;100619.44;;;10.06;49.51
72096;BME280;59968;51.084;16.748;2024-03-08T13:01:09;100619.68;;;10.11;49.59
72096;BME280;59968;51.084;16.748;2024-03-08T13:03:38;100615.81;;;10.16;49.62
72096;BME280;59968;51.084;16.748;2024-03-08T13:06:08;100616.02;;;10.21;49.42
72096;BME280;59968;51.084;16.748;2024-03-08T13:08:38;100613.48;;;10.26;48.89
72096;BME280;59968;51.084;16.748;2024-03-08T13:11:10;100612.80;;;10.31;49.03
72096;BME280;59968;51.084;16.748;2024-03-08T13:13:43;100606.86;;;10.33;48.70
72096;BME280;59968;51.084;16.748;2024-03-08T13:16:13;100602.34;;;10.31;48.50
72096;BME280;59968;51.084;16.748;2024-03-08T13:18:51;100599.41;;;10.32;49.15
72096;BME280;59968;51.084;16.748;2024-03-08T13:21:22;100597.00;;;10.31;49.07
72096;BME280;59968;51.084;16.748;2024-03-08T13:23:53;100599.95;;;10.28;48.92